Dresden Airport EDDC

Flugplatz Daten

Name: Dresden Airport

Ident: EDDC

Lat: 51,13280106

Long: 13,76720047

Platzhöhe: 755 ft

IataCode: DRS

City: Dresden

Homepage: http://www.dresden-airport.de/en/index.html

Metar

2022/08/14 06:50
EDDC 140650Z AUTO VRB02KT CAVOK 22/17 Q1013 BECMG 07008KT

Taf

2022/08/14 06:27
TAF EDDC 140500Z 1406/1506 VRB03KT CAVOK
BECMG 1407/1409 05008KT
BECMG 1418/1420 14005KT
Gewünschte Webcam nicht vorhanden? Dann fügen Sie eine hinzu. Sie wird dann so schnell wie möglich freigeschaltet
Url: Title: